Time;durP1;ratioP1;P1;durP2;ratioP2;P2;SDS_P1;SDS_P2;PMS_P1;PMS_P2;Temp;Humidity;BMP_temperature;BMP_pressure;BME280_temperature;BME280_humidity;BME280_pressure;Samples;Min_cycle;Max_cycle;Signal;HPM_P1;HPM_P2
2022/12/01 00:00:27;;;;;;;30.60;17.10;;;4.00;99.90;;;;;;5010226;28;20355;-72
2022/12/01 00:02:52;;;;;;;33.07;17.57;;;4.10;99.90;;;;;;5010635;28;20247;-71
2022/12/01 00:05:18;;;;;;;38.10;17.80;;;4.00;99.90;;;;;;5010803;28;20189;-72
2022/12/01 00:07:43;;;;;;;33.47;17.90;;;4.10;99.90;;;;;;5013134;28;20174;-72
2022/12/01 00:10:25;;;;;;;33.70;16.50;;;4.10;99.90;;;;;;5012543;28;20185;-72
2022/12/01 00:12:56;;;;;;;30.23;17.10;;;4.10;99.90;;;;;;5011912;28;20197;-71
2022/12/01 00:15:24;;;;;;;34.17;17.73;;;4.00;99.90;;;;;;5010954;28;20783;-69
2022/12/01 00:17:50;;;;;;;34.80;16.97;;;4.00;99.90;;;;;;5011232;28;20479;-71
2022/12/01 00:20:16;;;;;;;37.03;18.03;;;4.00;99.90;;;;;;5010037;28;20614;-72
2022/12/01 00:22:46;;;;;;;37.80;18.17;;;4.00;99.90;;;;;;5010205;28;20673;-69
2022/12/01 00:25:14;;;;;;;28.23;15.77;;;4.00;99.90;;;;;;5010529;28;20775;-71
2022/12/01 00:27:40;;;;;;;36.90;19.33;;;4.00;99.90;;;;;;5010842;28;20397;-71
2022/12/01 00:30:10;;;;;;;33.17;16.73;;;4.00;99.90;;;;;;5010209;28;20759;-71
2022/12/01 00:32:35;;;;;;;34.03;17.90;;;4.00;99.90;;;;;;5010514;28;20432;-71
2022/12/01 00:35:01;;;;;;;33.40;17.00;;;4.00;99.90;;;;;;5009867;28;20431;-69
2022/12/01 00:37:29;;;;;;;33.73;17.10;;;4.00;99.90;;;;;;5010024;28;20441;-71
2022/12/01 00:39:56;;;;;;;30.70;17.00;;;3.90;99.90;;;;;;5009777;28;20458;-71
2022/12/01 00:42:21;;;;;;;37.10;18.40;;;3.90;99.90;;;;;;5010348;28;20437;-68
2022/12/01 00:44:47;;;;;;;38.70;18.13;;;3.90;99.90;;;;;;5009067;28;20552;-71
2022/12/01 00:47:12;;;;;;;31.23;16.93;;;4.00;99.90;;;;;;5010040;28;20177;-72
2022/12/01 00:49:38;;;;;;;36.63;17.90;;;4.00;99.90;;;;;;5009777;28;20171;-72
2022/12/01 00:52:04;;;;;;;41.07;18.20;;;3.90;99.90;;;;;;5010465;28;20200;-72
2022/12/01 00:54:32;;;;;;;35.30;18.20;;;3.90;99.90;;;;;;5010474;28;20725;-71
2022/12/01 00:56:58;;;;;;;35.43;18.03;;;3.90;99.90;;;;;;5009962;28;20179;-71
2022/12/01 00:59:24;;;;;;;30.33;16.30;;;4.00;99.90;;;;;;5009520;28;20583;-70
2022/12/01 01:01:50;;;;;;;30.00;17.00;;;4.00;99.90;;;;;;5010446;28;21017;-71
2022/12/01 01:04:17;;;;;;;27.40;16.33;;;4.00;99.90;;;;;;5010070;28;20421;-71
2022/12/01 01:06:42;;;;;;;38.50;19.27;;;4.00;99.90;;;;;;5010206;28;20809;-69
2022/12/01 01:09:09;;;;;;;31.90;16.37;;;4.00;99.90;;;;;;5010338;28;20397;-71
2022/12/01 01:11:35;;;;;;;31.47;16.60;;;4.00;99.90;;;;;;5009324;28;20321;-70
2022/12/01 01:14:01;;;;;;;32.57;17.50;;;4.00;99.90;;;;;;5008785;28;20511;-70
2022/12/01 01:16:27;;;;;;;32.90;17.23;;;4.00;99.90;;;;;;5010235;28;20177;-71
2022/12/01 01:18:52;;;;;;;36.00;17.63;;;3.90;99.90;;;;;;5010099;28;20565;-71
2022/12/01 01:21:22;;;;;;;34.20;17.70;;;4.00;99.90;;;;;;5008819;28;20436;-71
2022/12/01 01:23:49;;;;;;;37.23;17.93;;;4.00;99.90;;;;;;5010478;28;20236;-71
2022/12/01 01:26:35;;;;;;;30.13;15.80;;;3.90;99.90;;;;;;5009781;28;20383;-71
2022/12/01 01:29:03;;;;;;;36.80;15.57;;;4.00;99.90;;;;;;5009591;28;20413;-68
2022/12/01 01:31:30;;;;;;;36.23;16.53;;;4.00;99.90;;;;;;5009276;28;20483;-71
2022/12/01 01:33:56;;;;;;;31.10;16.70;;;3.90;99.90;;;;;;5010083;28;20425;-71
2022/12/01 01:36:22;;;;;;;28.23;15.47;;;4.00;99.90;;;;;;5009918;28;20413;-70
2022/12/01 01:38:50;;;;;;;33.20;16.57;;;3.90;99.90;;;;;;5009975;28;20385;-71
2022/12/01 01:41:17;;;;;;;31.83;17.53;;;3.90;99.90;;;;;;5008798;28;20189;-70
2022/12/01 01:43:42;;;;;;;31.77;16.63;;;3.90;99.90;;;;;;5009774;28;20757;-70
2022/12/01 01:46:19;;;;;;;31.67;16.23;;;3.90;99.90;;;;;;5009845;28;20526;-72
2022/12/01 01:49:04;;;;;;;39.47;18.93;;;3.80;99.90;;;;;;5010051;28;20181;-71
2022/12/01 01:51:43;;;;;;;32.87;16.13;;;3.70;99.90;;;;;;5013190;28;20428;-71
2022/12/01 01:54:14;;;;;;;31.63;15.37;;;3.70;99.90;;;;;;5012763;28;20400;-71
2022/12/01 01:56:42;;;;;;;33.33;15.53;;;3.60;99.90;;;;;;5013604;28;20438;-72
2022/12/01 01:59:08;;;;;;;33.63;17.60;;;3.60;99.90;;;;;;5013127;28;20950;-71
2022/12/01 03:32:32;;;;;;;29.50;14.13;;;3.40;99.90;;;;;;5482552;22;20884;-68
2022/12/01 03:35:09;;;;;;;30.40;13.57;;;3.40;99.90;;;;;;5002806;28;20949;-71
2022/12/01 03:37:40;;;;;;;26.03;15.60;;;3.40;99.90;;;;;;5012619;28;20509;-70
2022/12/01 03:40:11;;;;;;;30.10;13.87;;;3.40;99.90;;;;;;5013315;28;20457;-71
2022/12/01 03:42:51;;;;;;;22.03;13.70;;;3.40;99.90;;;;;;5005296;28;20512;-71
2022/12/01 03:45:25;;;;;;;29.73;15.07;;;3.40;99.90;;;;;;5014401;28;20448;-71
2022/12/01 03:47:51;;;;;;;28.00;14.93;;;3.40;99.90;;;;;;5010479;28;20407;-71
2022/12/01 03:50:17;;;;;;;27.10;14.00;;;3.40;99.90;;;;;;5005060;28;20766;-70
2022/12/01 03:52:48;;;;;;;23.43;13.37;;;3.40;99.90;;;;;;5012097;28;20440;-71
2022/12/01 03:55:19;;;;;;;27.03;15.33;;;3.40;99.90;;;;;;5012431;28;20809;-71
2022/12/01 03:58:15;;;;;;;24.00;13.23;;;3.40;99.90;;;;;;5012196;28;20427;-72
2022/12/01 04:00:42;;;;;;;29.07;13.90;;;3.40;99.90;;;;;;5011625;28;20455;-70
2022/12/01 04:03:16;;;;;;;31.60;15.70;;;3.40;99.90;;;;;;5012210;28;20426;-71
2022/12/01 04:05:42;;;;;;;32.53;14.87;;;3.30;99.90;;;;;;5012061;28;20418;-71
2022/12/01 04:08:07;;;;;;;26.23;15.33;;;3.30;99.90;;;;;;5012204;28;20415;-71
2022/12/01 04:10:33;;;;;;;27.40;14.20;;;3.30;99.90;;;;;;5011768;28;20189;-71
2022/12/01 04:12:58;;;;;;;32.63;16.53;;;3.30;99.90;;;;;;5011117;28;20202;-71
2022/12/01 04:15:25;;;;;;;28.83;15.30;;;3.30;99.90;;;;;;5011842;28;20177;-71
2022/12/01 04:17:50;;;;;;;31.30;17.53;;;3.30;99.90;;;;;;5012075;28;20251;-70
2022/12/01 04:20:16;;;;;;;28.77;14.90;;;3.30;99.90;;;;;;5011546;28;20542;-70
2022/12/01 04:22:42;;;;;;;31.20;15.47;;;3.30;99.90;;;;;;5011746;28;20192;-70
2022/12/01 04:25:08;;;;;;;32.50;15.63;;;3.30;99.90;;;;;;5011789;28;20424;-71
2022/12/01 04:27:34;;;;;;;30.17;16.17;;;3.30;99.90;;;;;;5011808;28;20186;-70
2022/12/01 04:30:00;;;;;;;27.53;15.30;;;3.30;99.90;;;;;;5011593;28;20382;-71
2022/12/01 04:32:26;;;;;;;30.47;15.60;;;3.30;99.90;;;;;;5011531;28;20460;-71
2022/12/01 04:34:51;;;;;;;37.30;16.40;;;3.30;99.90;;;;;;5011648;28;20189;-71
2022/12/01 04:37:17;;;;;;;32.00;15.80;;;3.30;99.90;;;;;;5011784;28;20658;-70
2022/12/01 04:39:43;;;;;;;31.53;16.57;;;3.30;99.90;;;;;;5011365;28;20749;-71
2022/12/01 04:42:09;;;;;;;30.07;16.30;;;3.40;99.90;;;;;;5011814;28;20756;-71
2022/12/01 04:44:35;;;;;;;29.43;15.57;;;3.40;99.90;;;;;;5011472;28;20587;-71
2022/12/01 04:47:02;;;;;;;33.70;15.20;;;3.40;99.90;;;;;;5011666;28;20385;-71
2022/12/01 04:49:28;;;;;;;29.00;16.10;;;3.40;99.90;;;;;;5011431;28;20209;-71
2022/12/01 04:51:53;;;;;;;32.00;15.13;;;3.30;99.90;;;;;;5011213;28;20399;-71
2022/12/01 04:54:19;;;;;;;37.53;16.53;;;3.40;99.90;;;;;;5011624;28;20167;-70
2022/12/01 04:56:44;;;;;;;30.27;15.97;;;3.40;99.90;;;;;;5011467;28;20202;-71
2022/12/01 04:59:10;;;;;;;30.57;16.03;;;3.40;99.90;;;;;;5011438;28;20197;-71
2022/12/01 05:01:36;;;;;;;32.13;14.83;;;3.40;99.90;;;;;;5011109;28;20566;-70
2022/12/01 05:04:01;;;;;;;30.23;16.00;;;3.40;99.90;;;;;;5011509;28;20173;-68
2022/12/01 05:06:28;;;;;;;31.80;16.03;;;3.40;99.90;;;;;;4993066;28;20240;-71
2022/12/01 05:08:56;;;;;;;28.10;16.73;;;3.40;99.90;;;;;;4991722;28;20174;-70
2022/12/01 05:11:22;;;;;;;36.67;17.10;;;3.40;99.90;;;;;;4991390;28;20429;-71
2022/12/01 05:13:48;;;;;;;30.30;16.53;;;3.40;99.90;;;;;;4991766;28;20420;-71
2022/12/01 05:16:23;;;;;;;36.93;16.20;;;3.40;99.90;;;;;;4991742;28;20413;-71
2022/12/01 05:18:50;;;;;;;30.43;15.10;;;3.40;99.90;;;;;;4991583;28;20384;-70
2022/12/01 05:21:16;;;;;;;31.27;16.97;;;3.40;99.90;;;;;;4991827;28;20850;-71
2022/12/01 05:23:44;;;;;;;30.40;15.70;;;3.40;99.90;;;;;;4991850;28;20396;-71
2022/12/01 05:26:10;;;;;;;31.90;15.33;;;3.40;99.90;;;;;;4995664;28;20413;-71
2022/12/01 05:28:36;;;;;;;29.03;14.57;;;3.40;99.90;;;;;;4995305;28;20424;-71
2022/12/01 05:31:02;;;;;;;30.03;15.57;;;3.30;99.90;;;;;;4995070;28;20710;-71
2022/12/01 05:33:28;;;;;;;30.67;16.63;;;3.40;99.90;;;;;;4995320;28;20418;-70
2022/12/01 05:35:54;;;;;;;28.40;15.23;;;3.50;99.90;;;;;;5004918;28;20432;-71
2022/12/01 05:38:20;;;;;;;29.97;16.60;;;3.50;99.90;;;;;;5014968;28;20954;-71
2022/12/01 05:40:53;;;;;;;32.13;15.87;;;3.40;99.90;;;;;;5014458;28;20225;-71
2022/12/01 05:43:20;;;;;;;28.70;15.00;;;3.40;99.90;;;;;;5014778;28;20514;-70
2022/12/01 05:45:45;;;;;;;30.70;16.67;;;3.40;99.90;;;;;;5014593;28;20432;-71
2022/12/01 05:48:11;;;;;;;34.30;19.10;;;3.40;99.90;;;;;;5014857;28;20421;-71
2022/12/01 05:50:38;;;;;;;28.40;15.40;;;3.50;99.90;;;;;;5014136;28;20548;-71
2022/12/01 05:53:04;;;;;;;26.80;15.23;;;3.50;99.90;;;;;;5014665;28;20185;-70
2022/12/01 05:55:33;;;;;;;29.90;16.10;;;3.50;99.90;;;;;;5014278;28;20428;-71
2022/12/01 05:57:58;;;;;;;29.40;15.13;;;3.50;99.90;;;;;;5014545;28;20463;-71
2022/12/01 06:00:24;;;;;;;28.20;15.10;;;3.50;99.90;;;;;;5014107;28;20461;-71
2022/12/01 06:02:49;;;;;;;29.67;16.20;;;3.50;99.90;;;;;;5014178;28;20208;-71
2022/12/01 06:05:15;;;;;;;33.00;16.87;;;3.60;99.90;;;;;;5014376;28;20270;-71
2022/12/01 06:07:41;;;;;;;32.03;18.63;;;3.50;99.90;;;;;;5014186;28;20550;-70
2022/12/01 06:10:08;;;;;;;35.80;19.40;;;3.50;99.90;;;;;;5014108;28;20184;-71
2022/12/01 06:12:34;;;;;;;31.03;16.50;;;3.50;99.90;;;;;;5013875;28;20407;-71
2022/12/01 06:15:00;;;;;;;35.20;16.83;;;3.50;99.90;;;;;;5014371;28;20419;-71
2022/12/01 06:17:25;;;;;;;34.73;16.77;;;3.60;99.90;;;;;;5013893;28;20262;-71
2022/12/01 06:19:51;;;;;;;29.00;16.10;;;3.60;99.90;;;;;;5013126;28;20582;-71
2022/12/01 06:22:16;;;;;;;35.33;16.10;;;3.50;99.90;;;;;;5014032;28;20638;-71
2022/12/01 06:24:42;;;;;;;30.87;17.10;;;3.50;99.90;;;;;;4996046;28;20178;-71
2022/12/01 06:27:07;;;;;;;32.07;15.67;;;3.50;99.90;;;;;;5014024;28;20190;-71
2022/12/01 06:29:33;;;;;;;29.13;15.10;;;3.50;99.90;;;;;;5013652;28;20551;-71
2022/12/01 06:31:58;;;;;;;31.23;17.30;;;3.50;99.90;;;;;;5013599;28;20222;-71
2022/12/01 06:34:24;;;;;;;27.40;15.00;;;3.50;99.90;;;;;;5013704;28;20193;-71
2022/12/01 06:36:49;;;;;;;28.83;17.20;;;3.50;99.90;;;;;;5012757;28;20192;-71
2022/12/01 06:39:16;;;;;;;30.87;16.73;;;3.60;99.90;;;;;;5016009;28;20209;-71
2022/12/01 06:41:42;;;;;;;37.17;18.07;;;3.60;99.90;;;;;;5015832;28;20196;-70
2022/12/01 06:44:08;;;;;;;32.40;17.23;;;3.50;99.90;;;;;;5015569;28;20919;-70
2022/12/01 06:46:33;;;;;;;30.00;16.13;;;3.50;99.90;;;;;;5014071;28;20409;-70
2022/12/01 06:48:59;;;;;;;31.87;16.70;;;3.50;99.90;;;;;;5014021;28;20413;-69
2022/12/01 06:51:25;;;;;;;30.87;16.27;;;3.60;99.90;;;;;;5013262;28;20208;-69
2022/12/01 06:53:54;;;;;;;29.00;17.10;;;3.50;99.90;;;;;;5013523;28;20170;-69
2022/12/01 06:56:20;;;;;;;33.07;17.50;;;3.50;99.90;;;;;;5013321;28;20479;-69
2022/12/01 06:58:47;;;;;;;34.73;18.37;;;3.50;99.90;;;;;;5013374;28;20412;-70
2022/12/01 07:01:13;;;;;;;36.20;17.70;;;3.50;99.90;;;;;;5012927;28;20591;-70
2022/12/01 07:03:39;;;;;;;28.50;16.80;;;3.50;99.90;;;;;;5013111;28;20420;-69
2022/12/01 07:06:04;;;;;;;26.77;14.57;;;3.50;99.90;;;;;;5013156;28;20175;-70
2022/12/01 07:08:31;;;;;;;31.30;16.07;;;3.50;99.90;;;;;;4995635;28;20171;-70
2022/12/01 07:11:07;;;;;;;26.50;14.80;;;3.50;99.90;;;;;;5013015;28;20320;-70
2022/12/01 07:13:33;;;;;;;32.87;17.53;;;3.40;99.90;;;;;;5013032;28;20414;-70
2022/12/01 07:16:03;;;;;;;34.97;17.30;;;3.50;99.90;;;;;;5013093;28;20900;-70
2022/12/01 07:18:29;;;;;;;27.67;15.67;;;3.50;99.90;;;;;;4995400;28;20424;-70
2022/12/01 07:21:02;;;;;;;29.17;15.50;;;3.50;99.90;;;;;;5012928;28;20811;-70
2022/12/01 07:23:27;;;;;;;34.13;18.40;;;3.50;99.90;;;;;;5012966;28;20186;-70
2022/12/01 07:26:01;;;;;;;30.53;16.23;;;3.60;99.90;;;;;;5013153;28;20416;-70
2022/12/01 07:28:27;;;;;;;29.90;15.90;;;3.60;99.90;;;;;;5012716;28;20402;-70
2022/12/01 07:30:53;;;;;;;27.87;14.20;;;3.60;99.90;;;;;;5012751;28;20428;-71
2022/12/01 07:33:18;;;;;;;25.80;15.90;;;3.60;99.90;;;;;;5012859;28;20435;-70
2022/12/01 07:35:44;;;;;;;32.27;17.10;;;3.60;99.90;;;;;;5012658;28;20201;-70
2022/12/01 07:38:09;;;;;;;29.53;16.20;;;3.60;99.90;;;;;;5012841;28;20266;-71
2022/12/01 07:40:35;;;;;;;32.90;15.57;;;3.60;99.90;;;;;;5012339;28;20221;-68
2022/12/01 07:43:00;;;;;;;38.03;17.27;;;3.60;99.90;;;;;;5012781;28;20235;-70
2022/12/01 07:45:26;;;;;;;29.80;16.53;;;3.60;99.90;;;;;;5012493;28;20252;-70
2022/12/01 07:47:53;;;;;;;30.80;15.77;;;3.60;99.90;;;;;;5012390;28;20210;-70
2022/12/01 07:50:18;;;;;;;31.93;16.37;;;3.60;99.90;;;;;;5012393;28;20209;-70
2022/12/01 07:52:44;;;;;;;35.80;17.10;;;3.60;99.90;;;;;;5012349;28;21016;-70
2022/12/01 07:55:09;;;;;;;28.37;15.20;;;3.60;99.90;;;;;;5012389;28;20217;-70
2022/12/01 07:57:35;;;;;;;32.50;17.00;;;3.70;99.90;;;;;;5012258;28;20671;-70
2022/12/01 08:00:00;;;;;;;32.30;16.27;;;3.60;99.90;;;;;;5012145;28;20210;-69
2022/12/01 08:02:26;;;;;;;31.53;16.50;;;3.60;99.90;;;;;;5012148;28;20259;-70
2022/12/01 08:04:51;;;;;;;35.03;17.23;;;3.70;99.90;;;;;;5012161;28;20183;-70
2022/12/01 08:07:17;;;;;;;40.83;17.33;;;3.60;99.90;;;;;;5012356;28;20181;-70
2022/12/01 08:09:43;;;;;;;35.83;17.03;;;3.60;99.90;;;;;;5011966;28;20182;-70
2022/12/01 08:12:09;;;;;;;30.00;15.63;;;3.60;99.90;;;;;;5012178;28;20200;-71
2022/12/01 08:14:34;;;;;;;31.20;16.93;;;3.60;99.90;;;;;;5012070;28;20380;-70
2022/12/01 08:17:00;;;;;;;28.00;15.83;;;3.60;99.90;;;;;;5011945;28;20184;-70
2022/12/01 08:19:26;;;;;;;29.87;16.53;;;3.60;99.90;;;;;;5012060;28;20202;-69
2022/12/01 08:21:52;;;;;;;28.80;14.80;;;3.60;99.90;;;;;;5011698;28;20225;-69
2022/12/01 08:24:17;;;;;;;32.63;16.60;;;3.60;99.90;;;;;;5012113;28;20811;-70
2022/12/01 08:26:43;;;;;;;26.30;14.80;;;3.60;99.90;;;;;;5011761;28;20201;-70
2022/12/01 08:29:08;;;;;;;25.20;14.67;;;3.60;99.90;;;;;;5012025;28;20640;-70
2022/12/01 08:31:36;;;;;;;34.80;16.60;;;3.60;99.90;;;;;;5011362;28;20297;-70
2022/12/01 08:34:05;;;;;;;29.40;16.13;;;3.60;99.90;;;;;;5012053;28;20175;-70
2022/12/01 08:36:30;;;;;;;31.03;15.70;;;3.60;99.90;;;;;;5011800;28;20937;-70
2022/12/01 08:38:56;;;;;;;33.13;16.20;;;3.70;99.90;;;;;;5011773;28;20497;-70
2022/12/01 08:41:23;;;;;;;28.93;15.10;;;3.70;99.90;;;;;;5011464;28;20212;-70
2022/12/01 08:43:49;;;;;;;27.10;14.67;;;3.70;99.90;;;;;;5011837;28;20268;-70
2022/12/01 08:46:14;;;;;;;27.50;15.10;;;3.70;99.90;;;;;;5011749;28;20474;-70
2022/12/01 08:48:40;;;;;;;27.53;15.50;;;3.70;99.90;;;;;;5011510;28;20179;-70
2022/12/01 08:51:07;;;;;;;28.30;15.37;;;3.80;99.90;;;;;;5011745;28;20244;-70
2022/12/01 08:53:34;;;;;;;27.63;14.80;;;3.80;99.90;;;;;;5011414;28;20668;-70
2022/12/01 08:56:03;;;;;;;32.57;15.93;;;3.80;99.90;;;;;;5011485;28;20444;-70
2022/12/01 08:58:29;;;;;;;34.00;16.23;;;3.80;99.90;;;;;;5011386;28;20475;-71
2022/12/01 09:01:04;;;;;;;27.13;14.97;;;3.90;99.90;;;;;;5015280;28;20460;-71
2022/12/01 09:03:30;;;;;;;33.30;17.33;;;3.90;99.90;;;;;;5015364;28;20173;-70
2022/12/01 09:06:04;;;;;;;28.30;15.03;;;3.90;99.90;;;;;;5015473;28;20406;-70
2022/12/01 09:08:30;;;;;;;27.70;14.80;;;3.90;99.90;;;;;;5015508;28;20460;-70
2022/12/01 09:10:56;;;;;;;26.30;15.10;;;4.00;99.90;;;;;;5015267;28;20442;-71
2022/12/01 09:13:21;;;;;;;32.90;17.40;;;4.10;99.90;;;;;;5015701;28;20423;-70
2022/12/01 09:16:01;;;;;;;27.67;15.10;;;4.10;99.90;;;;;;5015225;28;20416;-71
2022/12/01 09:18:26;;;;;;;29.40;14.63;;;4.10;99.90;;;;;;5015212;28;20570;-70
2022/12/01 09:20:53;;;;;;;25.27;13.60;;;4.10;99.90;;;;;;5015036;28;20512;-70
2022/12/01 09:23:18;;;;;;;33.03;16.53;;;4.10;99.90;;;;;;5015164;28;20397;-70
2022/12/01 09:25:44;;;;;;;26.87;16.33;;;4.10;99.90;;;;;;5014895;28;20883;-70
2022/12/01 09:28:09;;;;;;;30.47;15.97;;;4.10;99.90;;;;;;5015125;28;20174;-70
2022/12/01 09:30:35;;;;;;;27.80;16.13;;;4.10;99.90;;;;;;5014504;28;20186;-70
2022/12/01 09:33:00;;;;;;;28.37;15.33;;;4.00;99.90;;;;;;5014962;28;20202;-70
2022/12/01 09:35:26;;;;;;;28.00;16.03;;;4.00;99.90;;;;;;5014771;28;20178;-70
2022/12/01 09:37:52;;;;;;;29.70;14.60;;;4.00;99.90;;;;;;5014710;28;20237;-70
2022/12/01 09:40:18;;;;;;;26.47;14.40;;;4.00;99.90;;;;;;5014526;28;20465;-69
2022/12/01 09:42:46;;;;;;;28.10;15.97;;;4.00;99.90;;;;;;5014581;28;20744;-70
2022/12/01 09:45:25;;;;;;;26.43;13.93;;;4.10;99.90;;;;;;5015005;28;20535;-69
2022/12/01 09:47:54;;;;;;;25.03;14.23;;;4.00;99.90;;;;;;5014602;28;20416;-69
2022/12/01 09:50:24;;;;;;;27.40;16.07;;;4.10;99.90;;;;;;5014467;28;20420;-69
2022/12/01 09:52:57;;;;;;;29.90;15.30;;;4.00;99.90;;;;;;5014467;28;20440;-70
2022/12/01 09:55:25;;;;;;;26.87;15.30;;;4.00;99.90;;;;;;5014644;28;20404;-70
2022/12/01 09:57:53;;;;;;;30.90;15.97;;;4.00;99.90;;;;;;5014524;28;20410;-70
2022/12/01 10:00:26;;;;;;;28.83;15.57;;;4.10;99.90;;;;;;5014498;28;20464;-69
2022/12/01 10:03:10;;;;;;;33.83;17.73;;;4.00;99.90;;;;;;4996649;28;20450;-69
2022/12/01 10:05:49;;;;;;;27.67;15.20;;;4.10;99.90;;;;;;5014116;28;20384;-69
2022/12/01 10:08:18;;;;;;;28.67;15.63;;;4.10;99.90;;;;;;5014499;28;20398;-70
2022/12/01 10:10:49;;;;;;;28.43;14.10;;;4.10;99.90;;;;;;5013690;28;20420;-69
2022/12/01 10:13:22;;;;;;;31.10;16.30;;;4.20;99.90;;;;;;5014203;28;20437;-70
2022/12/01 10:15:53;;;;;;;21.80;13.57;;;4.20;99.90;;;;;;5014455;28;20420;-70
2022/12/01 10:18:24;;;;;;;28.87;15.70;;;4.20;99.90;;;;;;5014369;28;20413;-70
2022/12/01 10:21:23;;;;;;;27.33;15.63;;;4.20;99.90;;;;;;5013405;28;20497;-70
2022/12/01 10:24:26;;;;;;;28.67;15.10;;;4.20;99.90;;;;;;5013984;28;20440;-70
2022/12/01 10:26:58;;;;;;;26.17;15.17;;;4.30;99.90;;;;;;5014104;28;20410;-69
2022/12/01 10:29:34;;;;;;;24.50;13.93;;;4.30;99.90;;;;;;5013855;28;20502;-70
2022/12/01 10:32:05;;;;;;;28.50;15.40;;;4.20;99.90;;;;;;5013430;28;20445;-70
2022/12/01 10:34:38;;;;;;;30.37;15.43;;;4.20;99.90;;;;;;5013719;28;20422;-70
2022/12/01 10:37:05;;;;;;;27.00;15.13;;;4.20;99.90;;;;;;5013840;28;20424;-70
2022/12/01 10:39:36;;;;;;;32.90;15.93;;;4.20;99.90;;;;;;5013599;28;20453;-70
2022/12/01 10:42:18;;;;;;;26.20;13.87;;;4.30;99.90;;;;;;5013465;28;20433;-70
2022/12/01 10:44:44;;;;;;;29.83;15.33;;;4.30;99.90;;;;;;5013598;28;20418;-70
2022/12/01 10:47:20;;;;;;;34.50;16.63;;;4.30;99.90;;;;;;5013519;28;20409;-70
2022/12/01 10:49:46;;;;;;;24.90;15.37;;;4.30;99.90;;;;;;5013468;28;20412;-70
2022/12/01 10:52:49;;;;;;;28.60;15.13;;;4.30;99.90;;;;;;5013096;28;20439;-70
2022/12/01 10:55:21;;;;;;;25.10;14.90;;;4.40;99.90;;;;;;5008536;28;20467;-70
2022/12/01 10:57:47;;;;;;;27.10;15.00;;;4.40;99.90;;;;;;5013319;28;20958;-70
2022/12/01 11:00:22;;;;;;;25.73;14.77;;;4.40;99.90;;;;;;5013170;28;20462;-70
2022/12/01 11:02:47;;;;;;;32.00;16.07;;;4.40;99.90;;;;;;5013289;28;20440;-70
2022/12/01 11:05:32;;;;;;;30.57;15.77;;;4.40;99.90;;;;;;5013288;28;20483;-70
2022/12/01 11:07:58;;;;;;;24.30;14.40;;;4.40;99.90;;;;;;5013217;28;20559;-69
2022/12/01 11:10:30;;;;;;;33.20;15.07;;;4.40;99.90;;;;;;5012877;28;20507;-67
2022/12/01 11:13:05;;;;;;;33.07;15.77;;;4.40;99.90;;;;;;5013209;28;20567;-70
2022/12/01 11:15:39;;;;;;;31.07;16.70;;;4.50;99.90;;;;;;5013004;28;20476;-70
2022/12/01 11:18:23;;;;;;;30.27;15.97;;;4.40;99.90;;;;;;5013295;28;20408;-69
2022/12/01 11:21:05;;;;;;;31.67;15.17;;;4.50;99.90;;;;;;5012525;28;20467;-70
2022/12/01 11:23:33;;;;;;;30.33;16.13;;;4.60;99.90;;;;;;5012673;28;20423;-69
2022/12/01 11:26:13;;;;;;;24.90;16.10;;;4.60;99.90;;;;;;5012877;28;20938;-69
2022/12/01 11:28:57;;;;;;;28.23;17.03;;;4.60;99.90;;;;;;5012751;28;20480;-70
2022/12/01 11:31:40;;;;;;;27.07;14.90;;;4.60;99.90;;;;;;5012368;28;20474;-70
2022/12/01 11:34:16;;;;;;;27.33;15.30;;;4.70;99.90;;;;;;5012863;28;20411;-70
2022/12/01 11:36:49;;;;;;;24.90;13.93;;;4.60;99.90;;;;;;5012639;28;20448;-70
2022/12/01 11:39:31;;;;;;;26.83;14.30;;;4.60;99.90;;;;;;5012709;28;20481;-71
2022/12/01 11:42:00;;;;;;;31.40;16.07;;;4.70;99.90;;;;;;5012476;28;20433;-70
2022/12/01 11:44:27;;;;;;;32.37;16.83;;;4.60;99.90;;;;;;5012534;28;20505;-71
2022/12/01 11:46:52;;;;;;;27.80;14.80;;;4.60;99.90;;;;;;5012683;28;20420;-70
2022/12/01 11:49:21;;;;;;;25.83;13.87;;;4.70;99.90;;;;;;5012576;28;20419;-70
2022/12/01 11:51:47;;;;;;;25.70;14.53;;;4.80;99.90;;;;;;5012009;28;20202;-70
2022/12/01 11:54:22;;;;;;;29.33;14.77;;;4.80;99.90;;;;;;5012805;28;20503;-70
2022/12/01 11:56:50;;;;;;;27.37;14.67;;;4.80;99.90;;;;;;5013034;28;20432;-70
2022/12/01 11:59:28;;;;;;;25.73;14.67;;;4.80;99.90;;;;;;5013619;28;20406;-70
2022/12/01 12:02:18;;;;;;;24.50;13.23;;;4.80;99.90;;;;;;5013287;28;20467;-70
2022/12/01 12:05:14;;;;;;;23.00;14.70;;;4.90;99.90;;;;;;5012393;28;20402;-71
2022/12/01 12:08:01;;;;;;;25.67;13.87;;;4.90;99.90;;;;;;5013296;28;20427;-71
2022/12/01 12:10:34;;;;;;;23.50;14.13;;;5.00;99.90;;;;;;5013204;28;20931;-70
2022/12/01 12:13:12;;;;;;;24.33;14.80;;;5.00;99.90;;;;;;5012408;28;20849;-70
2022/12/01 12:15:57;;;;;;;23.43;14.33;;;5.00;99.90;;;;;;5011992;28;20769;-71
2022/12/01 12:18:40;;;;;;;29.03;15.33;;;5.00;99.90;;;;;;5012104;28;20416;-70
2022/12/01 12:21:29;;;;;;;25.87;14.33;;;5.00;99.90;;;;;;5011642;28;20831;-71
2022/12/01 12:24:22;;;;;;;22.73;14.77;;;5.10;99.90;;;;;;5011976;28;20423;-70
2022/12/01 12:27:22;;;;;;;27.90;15.07;;;5.10;99.90;;;;;;5011965;28;20909;-71
2022/12/01 12:30:00;;;;;;;24.23;13.53;;;5.20;99.90;;;;;;5012067;28;20411;-70
2022/12/01 12:32:44;;;;;;;26.20;15.47;;;5.10;99.90;;;;;;5011331;28;20843;-70
2022/12/01 12:35:23;;;;;;;26.37;14.60;;;5.20;99.90;;;;;;5011080;28;20520;-69
2022/12/01 12:38:10;;;;;;;30.10;15.20;;;5.10;99.90;;;;;;5011778;28;20422;-70
2022/12/01 12:40:56;;;;;;;24.20;14.47;;;5.10;99.90;;;;;;5011256;28;20464;-70
2022/12/01 12:43:55;;;;;;;27.70;14.67;;;5.20;99.90;;;;;;5011658;28;20838;-70
2022/12/01 12:46:57;;;;;;;29.23;14.93;;;5.10;99.90;;;;;;5011671;28;20420;-71
2022/12/01 12:49:31;;;;;;;23.50;14.20;;;5.10;99.90;;;;;;5011571;28;20840;-71
2022/12/01 12:52:18;;;;;;;25.07;13.40;;;5.20;99.90;;;;;;5011839;28;20434;-71
2022/12/01 12:54:48;;;;;;;22.83;13.57;;;5.10;99.90;;;;;;5012232;28;20786;-70
2022/12/01 12:57:30;;;;;;;24.97;13.43;;;5.20;99.90;;;;;;5012237;28;20469;-70
2022/12/01 13:00:01;;;;;;;24.20;12.40;;;5.10;99.90;;;;;;5012313;28;20463;-70
2022/12/01 13:02:40;;;;;;;24.83;14.37;;;5.20;99.90;;;;;;5011922;28;20439;-70
2022/12/01 13:05:09;;;;;;;27.30;14.30;;;5.30;99.90;;;;;;5012428;28;20425;-70
2022/12/01 13:08:06;;;;;;;25.80;14.23;;;5.30;99.90;;;;;;5011847;28;20419;-70
2022/12/01 13:10:52;;;;;;;22.60;12.63;;;5.30;99.90;;;;;;5011831;28;20432;-70
2022/12/01 13:13:34;;;;;;;24.63;14.30;;;5.30;99.90;;;;;;5012210;28;20428;-70
2022/12/01 13:16:02;;;;;;;26.47;13.20;;;5.30;99.90;;;;;;5012685;28;20861;-71
2022/12/01 13:18:41;;;;;;;25.10;13.50;;;5.30;99.90;;;;;;5012014;28;20419;-70
2022/12/01 13:21:14;;;;;;;21.60;12.87;;;5.20;99.90;;;;;;5011033;28;20489;-70
2022/12/01 13:23:41;;;;;;;23.47;14.03;;;5.20;99.90;;;;;;5011258;28;20470;-70
2022/12/01 13:26:08;;;;;;;23.40;13.80;;;5.10;99.90;;;;;;5011336;28;20783;-71
2022/12/01 13:28:52;;;;;;;29.67;14.10;;;5.10;99.90;;;;;;5011088;28;20413;-70
2022/12/01 13:31:19;;;;;;;17.67;11.80;;;5.00;99.90;;;;;;5010830;28;20849;-70
2022/12/01 13:34:03;;;;;;;20.53;13.30;;;5.00;99.90;;;;;;5011076;28;20461;-71
2022/12/01 13:36:30;;;;;;;26.07;13.37;;;5.00;99.90;;;;;;5011129;28;20461;-70
2022/12/01 13:38:57;;;;;;;25.23;13.27;;;5.00;99.90;;;;;;5011045;28;20437;-70
2022/12/01 13:41:32;;;;;;;28.63;14.30;;;5.00;99.90;;;;;;5010735;28;20466;-71
2022/12/01 13:44:07;;;;;;;20.90;13.80;;;5.10;99.90;;;;;;5011169;28;20417;-69
2022/12/01 13:46:41;;;;;;;23.00;13.60;;;5.00;99.90;;;;;;5014182;28;20496;-70
2022/12/01 13:49:35;;;;;;;23.93;13.97;;;5.00;99.90;;;;;;5014748;28;20469;-70
2022/12/01 13:52:27;;;;;;;23.20;12.70;;;5.00;99.90;;;;;;5014431;28;20425;-69
2022/12/01 13:55:21;;;;;;;29.90;15.00;;;5.00;99.90;;;;;;5014720;28;20457;-69
2022/12/01 13:58:11;;;;;;;26.50;13.90;;;5.00;99.90;;;;;;5011650;28;20430;-70
2022/12/01 14:00:37;;;;;;;24.87;13.90;;;5.00;99.90;;;;;;5014009;28;20466;-68
2022/12/01 14:03:12;;;;;;;24.73;14.17;;;5.00;99.90;;;;;;5014344;28;20404;-70
2022/12/01 14:05:53;;;;;;;27.40;14.00;;;5.00;99.90;;;;;;5014098;28;20202;-70
2022/12/01 14:08:44;;;;;;;24.67;13.17;;;5.00;99.90;;;;;;5014456;28;20405;-71
2022/12/01 14:11:25;;;;;;;26.10;13.00;;;5.00;99.90;;;;;;5013908;28;20935;-70
2022/12/01 14:13:59;;;;;;;26.33;13.53;;;4.90;99.90;;;;;;5014286;28;20422;-69
2022/12/01 14:16:48;;;;;;;23.70;13.73;;;4.90;99.90;;;;;;5014227;28;20407;-70
2022/12/01 14:19:38;;;;;;;28.33;14.47;;;4.90;99.90;;;;;;5014206;28;20420;-70
2022/12/01 14:22:05;;;;;;;26.77;14.73;;;4.90;99.90;;;;;;5013817;28;20437;-71
2022/12/01 14:24:42;;;;;;;21.00;13.03;;;4.90;99.90;;;;;;5013898;28;20554;-70